createdAt,value
2018-12-13T00:00:07.106Z,41.65
2018-12-13T00:02:36.123Z,46.33
2018-12-13T00:05:06.095Z,31.70
2018-12-13T00:07:35.379Z,31.80
2018-12-13T00:10:04.764Z,36.70
2018-12-13T00:12:33.392Z,35.90
2018-12-13T00:15:02.347Z,34.15
2018-12-13T00:17:31.011Z,34.05
2018-12-13T00:20:00.485Z,34.88
2018-12-13T00:22:30.163Z,35.52
2018-12-13T00:24:58.711Z,38.20
2018-12-13T00:27:27.262Z,38.80
2018-12-13T00:29:56.331Z,36.48
2018-12-13T00:32:26.061Z,39.50
2018-12-13T00:34:55.065Z,38.00
2018-12-13T00:37:23.984Z,39.10
2018-12-13T00:39:52.585Z,34.98
2018-12-13T00:42:21.220Z,40.38
2018-12-13T00:44:50.064Z,42.25
2018-12-13T00:47:19.408Z,36.50
2018-12-13T00:49:48.384Z,36.05
2018-12-13T00:52:17.627Z,42.78
2018-12-13T00:54:47.355Z,38.20
2018-12-13T00:57:16.299Z,38.78
2018-12-13T00:59:44.844Z,33.90
2018-12-13T01:02:13.451Z,45.23
2018-12-13T01:04:42.637Z,41.18
2018-12-13T01:07:12.031Z,37.95
2018-12-13T01:09:40.988Z,40.12
2018-12-13T01:12:10.072Z,38.42
2018-12-13T01:14:39.049Z,39.03
2018-12-13T01:17:08.037Z,38.63
2018-12-13T01:19:36.689Z,40.23
2018-12-13T01:22:06.106Z,39.15
2018-12-13T01:24:35.133Z,41.30
2018-12-13T01:27:04.216Z,39.33
2018-12-13T01:29:32.990Z,40.98
2018-12-13T01:32:03.922Z,44.03
2018-12-13T01:34:33.457Z,37.65
2018-12-13T01:37:05.439Z,40.08
2018-12-13T01:39:36.981Z,38.60
2018-12-13T01:42:06.527Z,42.70
2018-12-13T01:44:35.668Z,36.75
2018-12-13T01:47:05.056Z,41.98
2018-12-13T01:49:35.145Z,35.80
2018-12-13T01:52:05.098Z,42.75
2018-12-13T01:54:34.784Z,36.50
2018-12-13T01:57:04.251Z,41.88
2018-12-13T01:59:32.900Z,41.33
2018-12-13T02:02:13.481Z,40.40
2018-12-13T02:04:42.090Z,41.70
2018-12-13T02:07:10.688Z,44.03
2018-12-13T02:09:39.643Z,38.85
2018-12-13T02:12:09.324Z,38.98
2018-12-13T02:14:39.273Z,43.35
2018-12-13T02:17:08.314Z,36.60
2018-12-13T02:19:38.263Z,46.00
2018-12-13T02:22:07.720Z,42.67
2018-12-13T02:24:36.960Z,42.62
2018-12-13T02:27:06.049Z,39.18
2018-12-13T02:29:35.288Z,43.73
2018-12-13T02:32:04.340Z,42.27
2018-12-13T02:34:33.503Z,41.98
2018-12-13T02:37:06.006Z,39.48
2018-12-13T02:39:34.340Z,42.43
2018-12-13T02:42:03.692Z,37.23
2018-12-13T02:44:32.225Z,36.85
2018-12-13T02:47:07.840Z,35.03
2018-12-13T02:49:36.895Z,37.05
2018-12-13T02:52:06.973Z,42.75
2018-12-13T02:54:36.749Z,46.08
2018-12-13T02:57:06.238Z,43.00
2018-12-13T02:59:35.082Z,36.28
2018-12-13T03:02:05.110Z,45.33
2018-12-13T03:04:34.057Z,40.52
2018-12-13T03:07:03.442Z,38.98
2018-12-13T03:09:32.306Z,41.88
2018-12-13T03:12:01.289Z,38.63
2018-12-13T03:14:30.697Z,44.03
2018-12-13T03:16:59.436Z,44.42
2018-12-13T03:19:28.068Z,41.68
2018-12-13T03:21:56.722Z,39.03
2018-12-13T03:24:25.318Z,39.33
2018-12-13T03:26:54.257Z,43.78
2018-12-13T03:29:23.231Z,41.55
2018-12-13T03:31:51.830Z,46.77
2018-12-13T03:34:20.382Z,40.20
2018-12-13T03:36:48.968Z,38.28
2018-12-13T03:39:17.937Z,43.95
2018-12-13T03:41:46.867Z,36.40
2018-12-13T03:44:15.898Z,38.70
2018-12-13T03:46:44.451Z,41.65
2018-12-13T03:49:13.501Z,42.00
2018-12-13T03:51:42.498Z,42.23
2018-12-13T03:54:12.448Z,41.58
2018-12-13T03:56:41.014Z,49.18
2018-12-13T03:59:12.648Z,46.28
2018-12-13T04:01:42.076Z,39.10
2018-12-13T04:04:11.404Z,46.10
2018-12-13T04:06:40.024Z,43.80
2018-12-13T04:09:09.028Z,46.80
2018-12-13T04:11:37.960Z,41.88
2018-12-13T04:14:06.527Z,42.17
2018-12-13T04:16:35.108Z,48.95
2018-12-13T04:19:05.047Z,48.38
2018-12-13T04:21:34.380Z,43.02
2018-12-13T04:24:03.371Z,44.93
2018-12-13T04:26:31.938Z,48.78
2018-12-13T04:29:01.003Z,46.83
2018-12-13T04:31:29.928Z,46.60
2018-12-13T04:33:58.553Z,44.33
2018-12-13T04:36:27.140Z,47.30
2018-12-13T04:38:55.732Z,41.05
2018-12-13T04:41:24.312Z,46.88
2018-12-13T04:43:52.910Z,46.37
2018-12-13T04:46:21.805Z,55.52
2018-12-13T04:48:50.343Z,48.75
2018-12-13T04:51:18.930Z,49.75
2018-12-13T04:53:47.919Z,46.37
2018-12-13T04:56:16.908Z,48.13
2018-12-13T04:58:45.847Z,47.03
2018-12-13T05:01:14.809Z,45.35
2018-12-13T05:03:43.352Z,44.45
2018-12-13T05:06:12.821Z,49.20
2018-12-13T05:08:41.485Z,52.10
2018-12-13T05:11:10.106Z,53.85
2018-12-13T05:13:39.167Z,52.93
2018-12-13T05:16:07.872Z,56.13
2018-12-13T05:18:37.411Z,51.20
2018-12-13T05:21:07.640Z,51.53
2018-12-13T05:23:36.264Z,46.53
2018-12-13T05:26:08.406Z,53.50
2018-12-13T05:28:46.582Z,51.70
2018-12-13T05:34:09.252Z,47.75
2018-12-13T05:36:37.942Z,45.48
2018-12-13T05:39:08.462Z,43.08
2018-12-13T05:41:38.241Z,47.90
2018-12-13T05:44:07.120Z,48.55
2018-12-13T05:46:35.924Z,48.25
2018-12-13T05:49:05.773Z,47.43
2018-12-13T05:51:35.722Z,44.95
2018-12-13T05:54:16.171Z,46.42
2018-12-13T05:56:44.858Z,46.95
2018-12-13T05:59:13.497Z,45.60
2018-12-13T06:01:43.058Z,47.30
2018-12-13T06:04:11.580Z,44.95
2018-12-13T06:06:40.100Z,52.50
2018-12-13T06:09:09.408Z,40.98
2018-12-13T06:11:44.291Z,44.45
2018-12-13T06:14:21.645Z,42.45
2018-12-13T06:17:08.815Z,48.35
2018-12-13T06:19:39.918Z,48.30
2018-12-13T06:22:10.915Z,42.27
2018-12-13T06:28:00.269Z,42.93
2018-12-13T06:30:41.771Z,48.70
2018-12-13T06:33:16.429Z,43.17
2018-12-13T06:35:51.723Z,51.95
2018-12-13T06:38:29.958Z,44.42
2018-12-13T06:41:02.649Z,45.67
2018-12-13T06:43:41.713Z,40.78
2018-12-13T06:46:16.463Z,46.48
2018-12-13T06:49:01.312Z,47.53
2018-12-13T06:51:30.280Z,44.40
2018-12-13T06:53:59.200Z,44.25
2018-12-13T06:56:28.164Z,43.73
2018-12-13T06:58:56.785Z,52.20
2018-12-13T07:01:25.662Z,46.63
2018-12-13T07:03:55.067Z,51.50
2018-12-13T07:06:24.464Z,45.20
2018-12-13T07:08:53.482Z,41.88
2018-12-13T07:11:22.392Z,46.05
2018-12-13T07:13:50.987Z,48.02
2018-12-13T07:16:19.964Z,46.90
2018-12-13T07:18:48.608Z,42.53
2018-12-13T07:21:17.430Z,46.90
2018-12-13T07:23:47.697Z,46.45
2018-12-13T07:26:16.267Z,43.33
2018-12-13T07:28:45.338Z,42.60
2018-12-13T07:31:23.367Z,51.37
2018-12-13T07:34:15.382Z,45.23
2018-12-13T07:36:53.555Z,48.92
2018-12-13T07:39:46.558Z,42.78
2018-12-13T07:42:33.150Z,53.20
2018-12-13T07:45:05.575Z,57.10
2018-12-13T07:47:45.157Z,45.33
2018-12-13T07:50:21.313Z,48.28
2018-12-13T07:52:54.507Z,67.08
2018-12-13T07:55:38.291Z,47.38
2018-12-13T07:58:21.041Z,49.70
2018-12-13T08:00:55.883Z,51.75
2018-12-13T08:03:31.283Z,44.93
2018-12-13T08:06:12.818Z,50.78
2018-12-13T08:08:47.307Z,47.45
2018-12-13T08:11:24.732Z,46.28
2018-12-13T08:13:57.433Z,47.62
2018-12-13T08:16:37.116Z,55.00
2018-12-13T08:19:17.833Z,48.17
2018-12-13T08:21:54.363Z,54.25
2018-12-13T08:24:33.103Z,49.00
2018-12-13T08:27:08.423Z,50.38
2018-12-13T08:29:40.821Z,49.70
2018-12-13T08:32:13.546Z,47.98
2018-12-13T08:37:27.112Z,54.48
2018-12-13T08:40:00.740Z,47.48
2018-12-13T08:42:37.975Z,56.75
2018-12-13T08:45:13.045Z,53.70
2018-12-13T08:47:48.275Z,50.88
2018-12-13T08:50:21.899Z,53.15
2018-12-13T08:52:57.274Z,50.23
2018-12-13T08:58:16.899Z,51.90
2018-12-13T09:01:01.435Z,52.78
2018-12-13T09:03:41.221Z,54.63
2018-12-13T09:08:54.489Z,52.60
2018-12-13T09:11:27.991Z,53.95
2018-12-13T09:14:02.337Z,57.88
2018-12-13T09:16:46.668Z,49.67
2018-12-13T09:19:21.724Z,48.58
2018-12-13T09:21:53.101Z,46.98
2018-12-13T09:24:28.216Z,47.43
2018-12-13T09:26:59.998Z,51.00
2018-12-13T09:29:32.425Z,54.55
2018-12-13T09:32:07.934Z,51.25
2018-12-13T09:34:42.030Z,49.73
2018-12-13T09:37:18.944Z,48.20
2018-12-13T09:39:55.393Z,56.73
2018-12-13T09:42:27.882Z,53.87
2018-12-13T09:44:58.044Z,58.65
2018-12-13T09:47:35.168Z,52.90
2018-12-13T09:50:11.243Z,55.67
2018-12-13T09:52:53.250Z,55.25
2018-12-13T09:55:32.111Z,52.25
2018-12-13T10:01:10.139Z,58.73
2018-12-13T10:03:40.365Z,57.23
2018-12-13T10:06:19.618Z,66.75
2018-12-13T10:08:50.444Z,54.03
2018-12-13T10:11:28.858Z,67.80
2018-12-13T10:14:02.851Z,60.92
2018-12-13T10:16:36.448Z,73.12
2018-12-13T10:19:09.756Z,71.77
2018-12-13T10:21:39.566Z,81.32
2018-12-13T10:24:10.772Z,74.32
2018-12-13T10:26:47.283Z,63.30
2018-12-13T10:29:16.566Z,72.35
2018-12-13T10:31:48.459Z,65.22
2018-12-13T10:34:18.256Z,72.30
2018-12-13T10:36:56.137Z,57.75
2018-12-13T10:39:31.422Z,57.38
2018-12-13T10:42:13.549Z,59.35
2018-12-13T10:44:46.688Z,65.35
2018-12-13T10:47:18.916Z,67.32
2018-12-13T10:49:55.064Z,62.95
2018-12-13T10:52:24.886Z,60.58
2018-12-13T10:55:01.204Z,61.50
2018-12-13T10:57:38.620Z,54.45
2018-12-13T11:00:14.347Z,55.28
2018-12-13T11:02:56.103Z,51.20
2018-12-13T11:05:29.394Z,57.67
2018-12-13T11:08:01.160Z,51.02
2018-12-13T11:10:42.008Z,50.80
2018-12-13T11:13:18.088Z,53.38
2018-12-13T11:15:52.802Z,52.93
2018-12-13T11:18:29.131Z,49.93
2018-12-13T11:21:05.694Z,47.80
2018-12-13T11:23:36.344Z,57.75
2018-12-13T11:26:10.425Z,49.42
2018-12-13T11:29:21.190Z,50.92
2018-12-13T11:31:55.798Z,47.50
2018-12-13T11:34:32.198Z,50.55
2018-12-13T11:37:09.639Z,45.10
2018-12-13T11:39:46.227Z,50.25
2018-12-13T11:42:20.025Z,52.83
2018-12-13T11:47:32.460Z,44.30
2018-12-13T11:50:06.413Z,52.33
2018-12-13T11:52:39.955Z,43.45
2018-12-13T11:55:21.110Z,42.62
2018-12-13T11:58:03.119Z,43.20
2018-12-13T12:00:35.706Z,43.60
2018-12-13T12:03:11.488Z,39.30
2018-12-13T12:05:45.792Z,38.58
2018-12-13T12:08:17.248Z,38.40
2018-12-13T12:10:52.254Z,46.90
2018-12-13T12:13:23.623Z,41.05
2018-12-13T12:15:59.065Z,41.13
2018-12-13T12:18:35.010Z,38.13
2018-12-13T12:21:07.924Z,39.45
2018-12-13T12:23:40.834Z,42.60
2018-12-13T12:26:13.029Z,42.88
2018-12-13T12:28:46.310Z,41.68
2018-12-13T12:31:21.491Z,41.33
2018-12-13T12:34:06.866Z,39.38
2018-12-13T12:36:38.948Z,36.68
2018-12-13T12:39:18.630Z,35.48
2018-12-13T12:41:48.171Z,41.95
2018-12-13T12:44:23.664Z,42.48
2018-12-13T12:46:56.114Z,36.85
2018-12-13T12:49:36.311Z,33.95
2018-12-13T12:52:12.636Z,39.38
2018-12-13T12:54:52.839Z,41.98
2018-12-13T12:57:28.013Z,40.63
2018-12-13T13:00:01.615Z,36.70
2018-12-13T13:02:38.240Z,43.87
2018-12-13T13:05:09.712Z,39.38
2018-12-13T13:07:49.769Z,43.55
2018-12-13T13:10:28.050Z,37.28
2018-12-13T13:13:07.317Z,37.90
2018-12-13T13:15:45.424Z,37.83
2018-12-13T13:18:31.230Z,38.78
2018-12-13T13:21:07.258Z,40.48
2018-12-13T13:23:39.973Z,38.30
2018-12-13T13:26:16.386Z,36.77
2018-12-13T13:28:57.944Z,41.98
2018-12-13T13:31:34.998Z,40.30
2018-12-13T13:34:34.652Z,39.58
2018-12-13T13:37:52.579Z,39.33
2018-12-13T13:43:32.456Z,40.00
2018-12-13T13:46:14.166Z,47.80
2018-12-13T13:51:58.099Z,33.30
2018-12-13T13:54:31.935Z,39.60
2018-12-13T13:57:10.877Z,36.03
2018-12-13T14:03:50.844Z,38.23
2018-12-13T14:06:26.050Z,38.58
2018-12-13T14:12:21.573Z,38.73
2018-12-13T14:14:57.525Z,41.55
2018-12-13T14:33:37.894Z,33.08
2018-12-13T14:36:20.167Z,31.62
2018-12-13T14:41:47.729Z,36.98
2018-12-13T14:44:24.012Z,39.38
2018-12-13T14:46:57.054Z,36.63
2018-12-13T14:49:39.217Z,38.83
2018-12-13T14:52:15.774Z,36.58
2018-12-13T14:54:58.813Z,33.78
2018-12-13T14:57:34.447Z,32.48
2018-12-13T15:00:17.332Z,35.00
2018-12-13T15:02:53.922Z,38.38
2018-12-13T15:05:32.808Z,38.10
2018-12-13T15:08:15.111Z,42.45
2018-12-13T15:10:57.094Z,39.92
2018-12-13T15:13:32.213Z,36.10
2018-12-13T15:16:14.969Z,36.00
2018-12-13T15:19:06.151Z,39.98
2018-12-13T15:21:37.386Z,40.35
2018-12-13T15:24:07.836Z,40.73
2018-12-13T15:26:47.517Z,41.28
2018-12-13T15:29:32.892Z,44.13
2018-12-13T15:32:14.851Z,40.78
2018-12-13T15:34:49.877Z,42.05
2018-12-13T15:37:22.751Z,39.45
2018-12-13T15:39:57.495Z,46.75
2018-12-13T15:42:33.335Z,44.20
2018-12-13T15:45:10.986Z,40.33
2018-12-13T15:47:51.375Z,44.10
2018-12-13T15:50:27.468Z,43.38
2018-12-13T15:53:06.106Z,45.95
2018-12-13T15:55:47.663Z,44.18
2018-12-13T15:58:48.308Z,41.05
2018-12-13T16:01:37.560Z,44.10
2018-12-13T16:07:11.109Z,44.83
2018-12-13T16:10:04.936Z,48.25
2018-12-13T16:13:24.364Z,47.35
2018-12-13T16:25:10.046Z,48.13
2018-12-13T16:35:13.868Z,51.98
2018-12-13T16:37:55.457Z,41.30
2018-12-13T16:47:47.754Z,47.98
2018-12-13T16:50:37.468Z,43.78
2018-12-13T16:53:23.488Z,49.90
2018-12-13T16:56:15.605Z,51.23
2018-12-13T16:59:04.643Z,51.28
2018-12-13T17:04:16.763Z,52.75
2018-12-13T17:06:45.339Z,44.80
2018-12-13T17:09:14.239Z,51.75
2018-12-13T17:11:49.790Z,45.85
2018-12-13T17:14:18.743Z,43.87
2018-12-13T17:16:48.103Z,41.00
2018-12-13T17:19:16.661Z,52.35
2018-12-13T17:21:45.380Z,52.62
2018-12-13T17:24:16.123Z,48.63
2018-12-13T17:29:26.724Z,51.90
2018-12-13T17:31:56.553Z,48.02
2018-12-13T17:34:25.519Z,54.60
2018-12-13T17:36:57.451Z,47.73
2018-12-13T17:45:23.000Z,42.05
2018-12-13T17:47:51.632Z,44.15
2018-12-13T17:50:23.428Z,39.78
2018-12-13T17:52:52.333Z,41.45
2018-12-13T17:55:21.643Z,45.78
2018-12-13T18:00:27.868Z,43.95
2018-12-13T18:02:59.603Z,43.17
2018-12-13T18:05:28.647Z,41.88
2018-12-13T18:08:00.421Z,46.10
2018-12-13T18:10:31.206Z,50.90
2018-12-13T18:21:52.184Z,41.23
2018-12-13T18:34:37.233Z,44.83
2018-12-13T18:37:06.265Z,40.88
2018-12-13T18:39:35.583Z,44.88
2018-12-13T18:48:00.523Z,41.48
2018-12-13T18:50:29.219Z,42.65
2018-12-13T18:53:02.568Z,52.75
2018-12-13T18:55:31.509Z,47.43
2018-12-13T18:58:06.505Z,45.50
2018-12-13T19:00:35.843Z,51.77
2018-12-13T19:03:04.869Z,54.10
2018-12-13T19:05:41.534Z,47.95
2018-12-13T19:08:11.122Z,46.00
2018-12-13T19:10:41.949Z,45.50
2018-12-13T19:17:23.240Z,47.03
2018-12-13T19:19:51.914Z,41.50
2018-12-13T19:22:22.985Z,45.65
2018-12-13T19:24:51.678Z,47.80
2018-12-13T19:27:46.723Z,41.88
2018-12-13T19:30:15.354Z,44.48
2018-12-13T19:32:46.228Z,45.08
2018-12-13T19:38:14.914Z,39.25
2018-12-13T19:40:48.539Z,42.62
2018-12-13T19:43:17.847Z,41.63
2018-12-13T19:45:47.348Z,42.20
2018-12-13T19:48:16.603Z,38.42
2018-12-13T19:50:48.269Z,37.08
2018-12-13T19:53:30.939Z,41.63
2018-12-13T19:55:59.490Z,34.75
2018-12-13T20:01:41.620Z,32.45
2018-12-13T20:04:10.734Z,37.10
2018-12-13T20:12:52.111Z,31.07
2018-12-13T20:19:54.052Z,34.03
2018-12-13T20:22:33.108Z,40.23
2018-12-13T20:25:08.427Z,36.08
2018-12-13T20:27:54.305Z,31.02
2018-12-13T20:32:58.437Z,37.03
2018-12-13T20:38:25.079Z,34.33
2018-12-13T20:41:00.968Z,36.83
2018-12-13T20:43:51.348Z,38.38
2018-12-13T20:49:07.144Z,32.63
2018-12-13T20:51:36.107Z,35.75
2018-12-13T20:54:05.697Z,33.45
2018-12-13T20:56:34.490Z,35.45
2018-12-13T20:59:03.404Z,34.83
2018-12-13T21:01:32.353Z,35.90
2018-12-13T21:04:04.432Z,33.75
2018-12-13T21:06:44.508Z,35.60
2018-12-13T21:09:13.056Z,37.28
2018-12-13T21:11:42.081Z,36.58
2018-12-13T21:14:10.593Z,37.28
2018-12-13T21:16:40.008Z,30.48
2018-12-13T21:19:09.323Z,36.73
2018-12-13T21:21:38.203Z,38.75
2018-12-13T21:24:12.323Z,33.58
2018-12-13T21:26:41.655Z,39.73
2018-12-13T21:29:28.729Z,38.83
2018-12-13T21:31:57.784Z,38.42
2018-12-13T21:34:26.884Z,41.68
2018-12-13T21:36:56.037Z,46.18
2018-12-13T21:39:26.228Z,37.20
2018-12-13T21:41:57.026Z,36.63
2018-12-13T21:44:26.804Z,36.17
2018-12-13T21:46:56.650Z,34.60
2018-12-13T21:49:26.363Z,34.20
2018-12-13T21:51:55.233Z,33.83
2018-12-13T21:54:25.061Z,39.53
2018-12-13T21:57:00.978Z,38.45
2018-12-13T21:59:37.296Z,33.55
2018-12-13T22:02:11.331Z,35.83
2018-12-13T22:04:40.015Z,36.25
2018-12-13T22:07:10.136Z,35.65
2018-12-13T22:09:39.162Z,35.70
2018-12-13T22:12:08.095Z,33.40
2018-12-13T22:14:37.467Z,33.50
2018-12-13T22:17:07.480Z,32.38
2018-12-13T22:19:36.508Z,38.60
2018-12-13T22:22:05.523Z,37.38
2018-12-13T22:24:34.576Z,36.80
2018-12-13T22:27:04.757Z,36.53
2018-12-13T22:29:33.432Z,33.85
2018-12-13T22:32:03.113Z,39.95
2018-12-13T22:34:36.282Z,37.10
2018-12-13T22:37:06.394Z,35.45
2018-12-13T22:39:35.463Z,35.05
2018-12-13T22:45:12.568Z,41.83
2018-12-13T22:50:43.394Z,39.08
2018-12-13T22:53:39.444Z,36.88
2018-12-13T22:56:23.947Z,36.00
2018-12-13T23:01:58.661Z,33.60
2018-12-13T23:04:36.652Z,34.00
2018-12-13T23:26:50.612Z,39.88
2018-12-13T23:29:22.804Z,38.88
2018-12-13T23:31:53.681Z,43.42
2018-12-13T23:39:55.725Z,38.30
2018-12-13T23:42:25.480Z,38.17
2018-12-13T23:44:54.976Z,35.92
2018-12-13T23:47:25.165Z,41.65
2018-12-13T23:49:54.726Z,40.85
2018-12-13T23:52:24.149Z,37.80
2018-12-13T23:54:52.852Z,37.45
2018-12-13T23:57:21.767Z,37.50
2018-12-13T23:59:51.338Z,41.37
